createdAt,value
2023-01-29T00:01:38.121Z,-3.06
2023-01-29T00:04:06.725Z,-3.08
2023-01-29T00:06:35.305Z,-3.11
2023-01-29T00:09:03.453Z,-3.14
2023-01-29T00:11:32.237Z,-3.15
2023-01-29T00:14:00.500Z,-3.17
2023-01-29T00:16:29.109Z,-3.17
2023-01-29T00:18:57.293Z,-3.18
2023-01-29T00:21:31.198Z,-3.20
2023-01-29T00:24:00.483Z,-3.21
2023-01-29T00:26:29.472Z,-3.22
2023-01-29T00:28:57.731Z,-3.26
2023-01-29T00:31:26.399Z,-3.30
2023-01-29T00:33:55.408Z,-3.33
2023-01-29T00:36:25.025Z,-3.38
2023-01-29T00:39:02.895Z,-3.41
2023-01-29T00:41:51.401Z,-3.43
2023-01-29T00:44:38.524Z,-3.46
2023-01-29T00:47:26.128Z,-3.49
2023-01-29T00:49:54.470Z,-3.49
2023-01-29T00:52:26.400Z,-3.50
2023-01-29T00:54:57.766Z,-3.51
2023-01-29T00:57:27.143Z,-3.53
2023-01-29T00:59:58.231Z,-3.54
2023-01-29T01:02:46.345Z,-3.56
2023-01-29T01:05:19.299Z,-3.55
2023-01-29T01:07:50.602Z,-3.56
2023-01-29T01:10:30.585Z,-3.55
2023-01-29T01:13:04.362Z,-3.54
2023-01-29T01:15:38.706Z,-3.53
2023-01-29T01:18:07.793Z,-3.52
2023-01-29T01:20:36.167Z,-3.54
2023-01-29T01:23:04.593Z,-3.55
2023-01-29T01:25:33.178Z,-3.59
2023-01-29T01:28:01.814Z,-3.63
2023-01-29T01:30:33.587Z,-3.68
2023-01-29T01:33:01.942Z,-3.70
2023-01-29T01:35:30.455Z,-3.72
2023-01-29T01:37:59.079Z,-3.75
2023-01-29T01:40:33.427Z,-3.78
2023-01-29T01:43:02.164Z,-3.80
2023-01-29T01:45:37.042Z,-3.83
2023-01-29T01:48:08.761Z,-3.84
2023-01-29T01:50:47.908Z,-3.86
2023-01-29T01:53:22.832Z,-3.89
2023-01-29T01:55:57.698Z,-3.90
2023-01-29T01:58:31.100Z,-3.91
2023-01-29T02:00:59.912Z,-3.94
2023-01-29T02:03:55.866Z,-3.95
2023-01-29T02:06:42.809Z,-4.00
2023-01-29T02:09:34.698Z,-4.02
2023-01-29T02:12:07.615Z,-4.05
2023-01-29T02:14:39.654Z,-4.06
2023-01-29T02:17:11.586Z,-4.08
2023-01-29T02:20:07.589Z,-4.10
2023-01-29T02:22:55.164Z,-4.12
2023-01-29T02:26:10.359Z,-4.13
2023-01-29T02:28:54.882Z,-4.15
2023-01-29T02:31:31.681Z,-4.17
2023-01-29T02:34:51.794Z,-4.17
2023-01-29T02:37:32.011Z,-4.17
2023-01-29T02:40:09.657Z,-4.19
2023-01-29T02:42:53.764Z,-4.19
2023-01-29T02:45:35.509Z,-4.19
2023-01-29T02:48:04.396Z,-4.16
2023-01-29T02:50:43.025Z,-4.11
2023-01-29T02:53:17.040Z,-4.08
2023-01-29T02:56:00.341Z,-4.08
2023-01-29T02:58:35.557Z,-4.09
2023-01-29T03:01:18.161Z,-4.10
2023-01-29T03:04:20.176Z,-4.09
2023-01-29T03:07:03.219Z,-4.10
2023-01-29T03:09:37.662Z,-4.08
2023-01-29T03:12:20.135Z,-4.04
2023-01-29T03:15:10.287Z,-4.00
2023-01-29T03:17:52.292Z,-3.95
2023-01-29T03:20:26.660Z,-3.91
2023-01-29T03:23:04.407Z,-3.88
2023-01-29T03:25:53.575Z,-3.85
2023-01-29T03:28:42.649Z,-3.82
2023-01-29T03:31:36.675Z,-3.79
2023-01-29T03:34:18.344Z,-3.76
2023-01-29T03:36:56.504Z,-3.73
2023-01-29T03:39:30.375Z,-3.73
2023-01-29T03:42:30.191Z,-3.72
2023-01-29T03:45:13.973Z,-3.71
2023-01-29T03:47:51.090Z,-3.70
2023-01-29T03:50:40.694Z,-3.70
2023-01-29T03:53:22.971Z,-3.68
2023-01-29T03:56:09.977Z,-3.67
2023-01-29T03:58:56.903Z,-3.67
2023-01-29T04:01:32.021Z,-3.67
2023-01-29T04:04:14.289Z,-3.66
2023-01-29T04:06:46.725Z,-3.63
2023-01-29T04:09:22.323Z,-3.61
2023-01-29T04:11:58.517Z,-3.60
2023-01-29T04:14:26.877Z,-3.57
2023-01-29T04:17:00.362Z,-3.55
2023-01-29T04:19:29.206Z,-3.54
2023-01-29T04:22:06.125Z,-3.54
2023-01-29T04:24:34.971Z,-3.53
2023-01-29T04:27:26.465Z,-3.51
2023-01-29T04:30:24.231Z,-3.51
2023-01-29T04:33:08.006Z,-3.52
2023-01-29T04:36:14.710Z,-3.53
2023-01-29T04:39:02.081Z,-3.54
2023-01-29T04:42:16.479Z,-3.56
2023-01-29T04:45:12.349Z,-3.57
2023-01-29T04:48:17.005Z,-3.56
2023-01-29T04:51:05.665Z,-3.56
2023-01-29T04:53:46.942Z,-3.55
2023-01-29T04:56:26.595Z,-3.55
2023-01-29T04:59:06.610Z,-3.56
2023-01-29T05:01:37.032Z,-3.56
2023-01-29T05:04:11.741Z,-3.55
2023-01-29T05:06:45.099Z,-3.56
2023-01-29T05:09:15.972Z,-3.57
2023-01-29T05:11:47.651Z,-3.56
2023-01-29T05:14:19.903Z,-3.57
2023-01-29T05:16:53.054Z,-3.57
2023-01-29T05:19:21.401Z,-3.58
2023-01-29T05:21:50.969Z,-3.59
2023-01-29T05:24:23.085Z,-3.61
2023-01-29T05:27:11.908Z,-3.61
2023-01-29T05:29:45.548Z,-3.59
2023-01-29T05:32:14.886Z,-3.59
2023-01-29T05:34:43.296Z,-3.61
2023-01-29T05:37:14.669Z,-3.62
2023-01-29T05:39:46.286Z,-3.63
2023-01-29T05:42:14.832Z,-3.63
2023-01-29T05:44:43.133Z,-3.65
2023-01-29T05:47:11.445Z,-3.66
2023-01-29T05:49:39.801Z,-3.69
2023-01-29T05:52:08.103Z,-3.69
2023-01-29T05:54:36.641Z,-3.70
2023-01-29T05:57:04.813Z,-3.70
2023-01-29T05:59:36.147Z,-3.69
2023-01-29T06:02:13.373Z,-3.68
2023-01-29T06:04:41.961Z,-3.67
2023-01-29T06:07:12.872Z,-3.66
2023-01-29T06:09:41.660Z,-3.64
2023-01-29T06:12:09.957Z,-3.62
2023-01-29T06:14:40.719Z,-3.60
2023-01-29T06:17:08.907Z,-3.57
2023-01-29T06:19:37.189Z,-3.57
2023-01-29T06:22:05.329Z,-3.56
2023-01-29T06:24:33.621Z,-3.57
2023-01-29T06:27:01.814Z,-3.57
2023-01-29T06:29:30.080Z,-3.56
2023-01-29T06:31:58.332Z,-3.56
2023-01-29T06:34:26.586Z,-3.54
2023-01-29T06:36:54.663Z,-3.53
2023-01-29T06:39:22.956Z,-3.51
2023-01-29T06:41:51.497Z,-3.49
2023-01-29T06:44:20.139Z,-3.48
2023-01-29T06:46:48.514Z,-3.47
2023-01-29T06:49:16.901Z,-3.45
2023-01-29T06:51:44.989Z,-3.43
2023-01-29T06:54:13.145Z,-3.41
2023-01-29T06:56:41.315Z,-3.38
2023-01-29T06:59:14.385Z,-3.37
2023-01-29T07:01:44.516Z,-3.36
2023-01-29T07:04:12.760Z,-3.34
2023-01-29T07:06:40.950Z,-3.32
2023-01-29T07:09:13.446Z,-3.30
2023-01-29T07:11:41.805Z,-3.29
2023-01-29T07:14:10.190Z,-3.27
2023-01-29T07:16:38.440Z,-3.25
2023-01-29T07:19:06.684Z,-3.22
2023-01-29T07:21:34.853Z,-3.20
2023-01-29T07:24:03.645Z,-3.18
2023-01-29T07:26:32.153Z,-3.16
2023-01-29T07:29:00.859Z,-3.11
2023-01-29T07:31:29.289Z,-3.07
2023-01-29T07:33:57.478Z,-3.07
2023-01-29T07:36:25.877Z,-3.08
2023-01-29T07:38:54.228Z,-3.08
2023-01-29T07:41:22.579Z,-3.08
2023-01-29T07:43:50.997Z,-3.05
2023-01-29T07:46:19.623Z,-3.04
2023-01-29T07:48:47.984Z,-3.04
2023-01-29T07:51:18.342Z,-3.02
2023-01-29T07:53:48.015Z,-3.03
2023-01-29T07:56:16.416Z,-3.03
2023-01-29T07:58:44.839Z,-3.01
2023-01-29T08:01:13.090Z,-3.00
2023-01-29T08:03:41.484Z,-2.99
2023-01-29T08:06:09.875Z,-2.96
2023-01-29T08:08:37.999Z,-2.93
2023-01-29T08:11:06.381Z,-2.92
2023-01-29T08:13:34.685Z,-2.91
2023-01-29T08:16:03.964Z,-2.90
2023-01-29T08:18:32.150Z,-2.90
2023-01-29T08:21:02.421Z,-2.88
2023-01-29T08:23:30.851Z,-2.86
2023-01-29T08:25:59.434Z,-2.86
2023-01-29T08:28:28.294Z,-2.88
2023-01-29T08:30:56.991Z,-2.86
2023-01-29T08:33:38.925Z,-2.86
2023-01-29T08:36:09.118Z,-2.86
2023-01-29T08:38:37.781Z,-2.84
2023-01-29T08:41:06.637Z,-2.83
2023-01-29T08:43:37.178Z,-2.83
2023-01-29T08:46:06.827Z,-2.82
2023-01-29T08:48:35.720Z,-2.81
2023-01-29T08:51:04.884Z,-2.80
2023-01-29T08:53:33.408Z,-2.79
2023-01-29T08:56:01.788Z,-2.78
2023-01-29T08:58:30.288Z,-2.76
2023-01-29T09:01:13.268Z,-2.76
2023-01-29T09:03:53.859Z,-2.77
2023-01-29T09:06:25.860Z,-2.80
2023-01-29T09:09:06.259Z,-2.81
2023-01-29T09:11:38.360Z,-2.83
2023-01-29T09:14:07.427Z,-2.84
2023-01-29T09:16:38.812Z,-2.85
2023-01-29T09:19:08.535Z,-2.88
2023-01-29T09:21:39.784Z,-2.89
2023-01-29T09:24:16.010Z,-2.87
2023-01-29T09:26:48.703Z,-2.86
2023-01-29T09:29:17.788Z,-2.85
2023-01-29T09:31:48.672Z,-2.84
2023-01-29T09:34:19.797Z,-2.84
2023-01-29T09:36:57.874Z,-2.81
2023-01-29T09:39:31.106Z,-2.79
2023-01-29T09:42:20.906Z,-2.77
2023-01-29T09:45:58.838Z,-2.73
2023-01-29T09:49:03.739Z,-2.68
2023-01-29T09:52:32.642Z,-2.67
2023-01-29T09:55:43.762Z,-2.66
2023-01-29T09:58:35.968Z,-2.63
2023-01-29T10:01:38.129Z,-2.63
2023-01-29T10:04:31.112Z,-2.63
2023-01-29T10:07:28.573Z,-2.61
2023-01-29T10:10:24.606Z,-2.61
2023-01-29T10:13:23.632Z,-2.60
2023-01-29T10:16:31.506Z,-2.60
2023-01-29T10:19:13.018Z,-2.61
2023-01-29T10:22:08.252Z,-2.62
2023-01-29T10:25:00.847Z,-2.59
2023-01-29T10:27:40.274Z,-2.59
2023-01-29T10:30:33.840Z,-2.59
2023-01-29T10:33:07.592Z,-2.57
2023-01-29T10:35:56.825Z,-2.56
2023-01-29T10:38:40.599Z,-2.56
2023-01-29T10:41:12.395Z,-2.55
2023-01-29T10:44:29.511Z,-2.53
2023-01-29T10:47:37.120Z,-2.53
2023-01-29T10:50:50.350Z,-2.51
2023-01-29T10:53:39.081Z,-2.52
2023-01-29T10:56:38.005Z,-2.51
2023-01-29T10:59:39.514Z,-2.50
2023-01-29T11:02:16.813Z,-2.49
2023-01-29T11:04:55.414Z,-2.47
2023-01-29T11:07:24.155Z,-2.48
2023-01-29T11:10:18.310Z,-2.48
2023-01-29T11:12:48.667Z,-2.47
2023-01-29T11:15:26.285Z,-2.44
2023-01-29T11:18:15.964Z,-2.39
2023-01-29T11:20:51.369Z,-2.35
2023-01-29T11:23:28.807Z,-2.33
2023-01-29T11:25:59.689Z,-2.32
2023-01-29T11:28:52.063Z,-2.27
2023-01-29T11:31:36.113Z,-2.25
2023-01-29T11:34:21.003Z,-2.24
2023-01-29T11:37:02.066Z,-2.23
2023-01-29T11:39:47.390Z,-2.18
2023-01-29T11:42:29.612Z,-2.16
2023-01-29T11:45:04.792Z,-2.16
2023-01-29T11:47:42.434Z,-2.15
2023-01-29T11:50:22.246Z,-2.13
2023-01-29T11:53:03.481Z,-2.13
2023-01-29T11:55:50.355Z,-2.13
2023-01-29T11:58:52.262Z,-2.15
2023-01-29T12:01:43.995Z,-2.19
2023-01-29T12:04:24.893Z,-2.19
2023-01-29T12:06:54.793Z,-2.18
2023-01-29T12:09:28.412Z,-2.17
2023-01-29T12:12:33.883Z,-2.17
2023-01-29T12:15:09.218Z,-2.15
2023-01-29T12:17:41.994Z,-2.16
2023-01-29T12:20:22.475Z,-2.15
2023-01-29T12:23:05.540Z,-2.15
2023-01-29T12:25:37.223Z,-2.16
2023-01-29T12:28:35.709Z,-2.15
2023-01-29T12:31:22.681Z,-2.17
2023-01-29T12:34:16.873Z,-2.16
2023-01-29T12:37:00.859Z,-2.16
2023-01-29T12:39:29.847Z,-2.15
2023-01-29T12:42:09.647Z,-2.14
2023-01-29T12:44:57.779Z,-2.11
2023-01-29T12:47:32.195Z,-2.08
2023-01-29T12:50:23.119Z,-2.09
2023-01-29T12:53:11.561Z,-2.05
2023-01-29T12:55:55.740Z,-2.05
2023-01-29T12:58:30.759Z,-2.05
2023-01-29T13:01:07.330Z,-2.06
2023-01-29T13:03:46.165Z,-2.06
2023-01-29T13:06:23.904Z,-2.04
2023-01-29T13:09:02.538Z,-2.00
2023-01-29T13:11:54.258Z,-2.00
2023-01-29T13:14:39.214Z,-2.00
2023-01-29T13:17:18.848Z,-1.98
2023-01-29T13:19:54.765Z,-1.96
2023-01-29T13:22:40.145Z,-1.94
2023-01-29T13:25:20.206Z,-1.95
2023-01-29T13:27:55.051Z,-1.91
2023-01-29T13:30:29.835Z,-1.91
2023-01-29T13:33:10.641Z,-1.92
2023-01-29T13:35:47.730Z,-1.90
2023-01-29T13:38:35.831Z,-1.90
2023-01-29T13:41:08.873Z,-1.90
2023-01-29T13:43:41.305Z,-1.91
2023-01-29T13:46:21.624Z,-1.91
2023-01-29T13:48:56.548Z,-1.89
2023-01-29T13:51:34.425Z,-1.88
2023-01-29T13:54:14.287Z,-1.88
2023-01-29T13:56:49.107Z,-1.86
2023-01-29T13:59:45.044Z,-1.86
2023-01-29T14:02:26.931Z,-1.86
2023-01-29T14:05:57.444Z,-1.86
2023-01-29T14:08:34.846Z,-1.86
2023-01-29T14:11:15.827Z,-1.87
2023-01-29T14:13:49.509Z,-1.84
2023-01-29T14:16:18.222Z,-1.83
2023-01-29T14:18:59.736Z,-1.81
2023-01-29T14:21:34.419Z,-1.78
2023-01-29T14:24:22.457Z,-1.76
2023-01-29T14:26:56.010Z,-1.78
2023-01-29T14:29:34.949Z,-1.80
2023-01-29T14:32:06.985Z,-1.79
2023-01-29T14:34:45.583Z,-1.78
2023-01-29T14:37:18.969Z,-1.78
2023-01-29T14:40:00.209Z,-1.78
2023-01-29T14:42:39.979Z,-1.77
2023-01-29T14:45:31.043Z,-1.77
2023-01-29T14:48:24.757Z,-1.75
2023-01-29T14:51:06.048Z,-1.73
2023-01-29T14:54:01.979Z,-1.71
2023-01-29T14:56:43.982Z,-1.70
2023-01-29T14:59:37.755Z,-1.68
2023-01-29T15:02:37.711Z,-1.66
2023-01-29T15:05:21.523Z,-1.64
2023-01-29T15:08:01.181Z,-1.61
2023-01-29T15:10:40.479Z,-1.59
2023-01-29T15:13:36.226Z,-1.60
2023-01-29T15:16:20.241Z,-1.60
2023-01-29T15:18:52.967Z,-1.61
2023-01-29T15:21:26.817Z,-1.61
2023-01-29T15:24:06.548Z,-1.61
2023-01-29T15:26:36.821Z,-1.61
2023-01-29T15:29:07.508Z,-1.61
2023-01-29T15:31:42.804Z,-1.63
2023-01-29T15:34:12.191Z,-1.65
2023-01-29T15:36:43.444Z,-1.67
2023-01-29T15:39:25.789Z,-1.69
2023-01-29T15:42:23.664Z,-1.72
2023-01-29T15:44:54.856Z,-1.73
2023-01-29T15:47:30.526Z,-1.74
2023-01-29T15:50:00.268Z,-1.73
2023-01-29T15:52:36.349Z,-1.72
2023-01-29T15:55:07.433Z,-1.72
2023-01-29T15:57:40.710Z,-1.72
2023-01-29T16:00:22.918Z,-1.72
2023-01-29T16:02:51.532Z,-1.70
2023-01-29T16:05:24.255Z,-1.69
2023-01-29T16:07:54.521Z,-1.71
2023-01-29T16:10:27.047Z,-1.71
2023-01-29T16:12:56.210Z,-1.71
2023-01-29T16:15:30.699Z,-1.71
2023-01-29T16:18:00.423Z,-1.69
2023-01-29T16:20:41.497Z,-1.69
2023-01-29T16:23:21.766Z,-1.69
2023-01-29T16:25:51.823Z,-1.68
2023-01-29T16:28:20.929Z,-1.69
2023-01-29T16:30:57.227Z,-1.69
2023-01-29T16:33:39.608Z,-1.68
2023-01-29T16:36:18.096Z,-1.68
2023-01-29T16:38:54.545Z,-1.68
2023-01-29T16:41:33.347Z,-1.68
2023-01-29T16:44:38.421Z,-1.68
2023-01-29T16:47:31.938Z,-1.69
2023-01-29T16:50:38.274Z,-1.69
2023-01-29T16:53:32.532Z,-1.70
2023-01-29T16:56:12.007Z,-1.68
2023-01-29T16:59:02.906Z,-1.67
2023-01-29T17:01:54.400Z,-1.67
2023-01-29T17:04:33.782Z,-1.66
2023-01-29T17:07:21.636Z,-1.66
2023-01-29T17:10:10.035Z,-1.66
2023-01-29T17:12:42.885Z,-1.64
2023-01-29T17:15:45.524Z,-1.61
2023-01-29T17:18:31.114Z,-1.60
2023-01-29T17:21:05.891Z,-1.58
2023-01-29T17:23:37.365Z,-1.57
2023-01-29T17:26:32.999Z,-1.57
2023-01-29T17:29:05.468Z,-1.56
2023-01-29T17:31:48.870Z,-1.55
2023-01-29T17:34:20.776Z,-1.53
2023-01-29T17:37:05.052Z,-1.52
2023-01-29T17:40:02.368Z,-1.50
2023-01-29T17:42:35.938Z,-1.47
2023-01-29T17:45:05.240Z,-1.45
2023-01-29T17:47:34.005Z,-1.46
2023-01-29T17:50:32.573Z,-1.46
2023-01-29T17:53:01.856Z,-1.46
2023-01-29T17:55:32.178Z,-1.46
2023-01-29T17:58:01.131Z,-1.47
2023-01-29T18:00:30.137Z,-1.47
2023-01-29T18:03:01.927Z,-1.48
2023-01-29T18:05:34.642Z,-1.48
2023-01-29T18:08:03.233Z,-1.49
2023-01-29T18:10:31.976Z,-1.49
2023-01-29T18:13:00.928Z,-1.48
2023-01-29T18:15:29.525Z,-1.48
2023-01-29T18:17:58.556Z,-1.49
2023-01-29T18:20:27.415Z,-1.50
2023-01-29T18:23:06.407Z,-1.52
2023-01-29T18:25:37.747Z,-1.53
2023-01-29T18:28:17.395Z,-1.53
2023-01-29T18:30:47.692Z,-1.54
2023-01-29T18:33:17.263Z,-1.56
2023-01-29T18:35:50.791Z,-1.56
2023-01-29T18:38:19.464Z,-1.57
2023-01-29T18:40:48.275Z,-1.59
2023-01-29T18:43:17.387Z,-1.60
2023-01-29T18:45:59.393Z,-1.61
2023-01-29T19:26:16.868Z,-1.64
2023-01-29T19:28:48.605Z,-1.61
2023-01-29T19:31:17.658Z,-1.61
2023-01-29T19:33:52.364Z,-1.63
2023-01-29T19:36:34.389Z,-1.63
2023-01-29T19:39:04.721Z,-1.63
2023-01-29T19:41:47.963Z,-1.62
2023-01-29T19:44:17.038Z,-1.62
2023-01-29T19:46:59.445Z,-1.61
2023-01-29T19:49:40.781Z,-1.62
2023-01-29T19:52:52.675Z,-1.63
2023-01-29T19:55:53.937Z,-1.58
2023-01-29T20:06:12.179Z,-1.59
2023-01-29T20:08:51.270Z,-1.60
2023-01-29T20:11:24.358Z,-1.61
2023-01-29T20:14:05.199Z,-1.62
2023-01-29T20:16:40.669Z,-1.64
2023-01-29T20:19:14.257Z,-1.66
2023-01-29T20:21:47.065Z,-1.68
2023-01-29T20:24:23.647Z,-1.70
2023-01-29T20:26:55.739Z,-1.71
2023-01-29T20:29:54.091Z,-1.73
2023-01-29T20:32:23.461Z,-1.73
2023-01-29T20:34:59.692Z,-1.73
2023-01-29T20:37:28.460Z,-1.75
2023-01-29T20:39:57.473Z,-1.77
2023-01-29T20:43:30.971Z,-1.78
2023-01-29T20:46:22.993Z,-1.81
2023-01-29T20:58:48.434Z,-1.79
2023-01-29T20:59:33.766Z,-1.81
2023-01-29T21:08:17.362Z,-1.79
2023-01-29T21:11:17.573Z,-1.80
2023-01-29T21:18:41.100Z,-1.81
2023-01-29T21:24:15.236Z,-1.83
2023-01-29T21:28:10.914Z,-1.86
2023-01-29T21:36:50.460Z,-1.89
2023-01-29T21:40:50.275Z,-1.90
2023-01-29T21:48:03.643Z,-1.93
2023-01-29T21:50:35.058Z,-1.94
2023-01-29T21:53:05.244Z,-1.94
2023-01-29T21:55:48.246Z,-1.95
2023-01-29T21:59:08.059Z,-1.95
2023-01-29T22:01:56.620Z,-1.91
2023-01-29T22:04:32.345Z,-1.92
2023-01-29T22:07:24.904Z,-1.91
2023-01-29T22:10:17.595Z,-1.89
2023-01-29T22:13:18.263Z,-1.89
2023-01-29T22:16:37.294Z,-1.89
2023-01-29T22:19:29.510Z,-1.92
2023-01-29T22:22:08.206Z,-1.94
2023-01-29T22:24:39.727Z,-1.95
2023-01-29T22:27:12.272Z,-1.97
2023-01-29T22:29:57.793Z,-1.99
2023-01-29T22:32:29.173Z,-1.99
2023-01-29T22:35:06.116Z,-2.00
2023-01-29T22:37:46.389Z,-2.01
2023-01-29T22:40:36.098Z,-2.01
2023-01-29T22:43:16.492Z,-2.00
2023-01-29T22:45:48.331Z,-1.99
2023-01-29T22:48:39.369Z,-1.97
2023-01-29T22:51:24.374Z,-1.97
2023-01-29T22:54:06.923Z,-1.96
2023-01-29T22:57:20.431Z,-1.95
2023-01-29T23:01:08.372Z,-1.94
2023-01-29T23:03:56.417Z,-1.93
2023-01-29T23:06:34.321Z,-1.93
2023-01-29T23:09:03.459Z,-1.94
2023-01-29T23:11:58.233Z,-1.93
2023-01-29T23:15:42.603Z,-1.92
2023-01-29T23:27:24.316Z,-1.96
2023-01-29T23:33:30.525Z,-1.98
2023-01-29T23:36:13.409Z,-1.97
2023-01-29T23:39:10.112Z,-1.96
2023-01-29T23:41:51.586Z,-1.96
2023-01-29T23:44:45.960Z,-1.95
2023-01-29T23:47:27.707Z,-1.96
2023-01-29T23:50:23.571Z,-1.94
2023-01-29T23:53:25.532Z,-1.96
2023-01-29T23:56:32.779Z,-1.96
2023-01-29T23:59:04.248Z,-1.98
